Fort Walton Beach, FL (32548)

12:52 PM CDT on July 24, 2016 (GMT -0500)
Hemlock Drive | | Change Station

Elev 26 ft 30.42 °N, 86.63 °W | Updated 25 seconds ago

Scattered Clouds
Scattered Clouds
85.5 °F
Feels Like 95 °F
N
2.0
Wind Variable Wind from South
Gusts 2.5 mph

Today
High -- | Low -- °F
--% Chance of Precip.
Yesterday
High -- | Low -- °F
Precip. -- in
Pressure 30.02 in
Visibility 10.0 miles
Clouds Scattered Clouds 2900 ft
Heat Index 95 °F
Dew Point 75 °F
Humidity 72%
Rainfall 0.46 in
Snow Depth Not available.
6:00 AM 7:45 PM
Waning Gibbous, 74% visible
METAR KHRT 241658Z 13009KT 10SM SCT029 32/23 A3001 RMK AO2A SLP164 T03220230
Pressure 30.02 in
Visibility 10.0 miles
Clouds Scattered Clouds 2900 ft
Heat Index 95 °F
Dew Point 75 °F
Humidity 72%
Rainfall 0.46 in
Snow Depth Not available.
6:00 AM 7:45 PM
Waning Gibbous, 74% visible
METAR KHRT 241658Z 13009KT 10SM SCT029 32/23 A3001 RMK AO2A SLP164 T03220230

10-Day Weather Forecast

Almanac

Astronomy

Jul. 24, 2016 Rise Set
Actual Time
Civil Twilight
Nautical Twilight
Astronomical Twilight
Moon
Length of Visible Light
Length of Day
Tomorrow will be .
, % of the Moon is Illuminated

Today's Extremes

State Highs State Lows

Community

WunderPhotos

Upload Photos

1,927,134 photos uploaded!

WunderBlog® & News

Nearby

Air Quality

  Air Quality AQ Index Pollutant
Not available.

Snow Depth

Station Depth Elevation

Earthquake Activity

City Distance Mag. Time & Date
Minimum magnitude displayed is 2.5.

Coastal Water Temperatures

Place Temperature

Stations

Nearby Weather Stations

Station Location Temp. Windchill Dew Point Humidity Wind Precip. Elev Updated Type
                   

Watches & Warnings

There are currently no watches in effect.